createdAt,value
2023-01-13T09:46:44.642Z,98605.84
2023-01-13T10:19:31.189Z,98623.53
2023-01-13T10:22:55.427Z,98625.94
2023-01-13T10:26:08.368Z,98624.88
2023-01-13T10:28:37.539Z,98625.22
2023-01-13T10:31:14.883Z,98635.69
2023-01-13T10:33:42.347Z,98624.94
2023-01-13T10:36:21.617Z,98639.16
2023-01-13T10:38:50.903Z,98640.50
2023-01-13T10:41:26.939Z,98641.81
2023-01-13T10:44:14.454Z,98643.16
2023-01-13T10:46:59.696Z,98658.84
2023-01-13T10:49:38.589Z,98654.78
2023-01-13T10:52:30.964Z,98675.81
2023-01-13T10:54:58.634Z,98673.22
2023-01-13T10:57:28.472Z,98672.66
2023-01-13T10:59:56.420Z,98674.09
2023-01-13T11:02:34.470Z,98675.53
2023-01-13T11:05:24.504Z,98659.56
2023-01-13T11:07:54.987Z,98650.06
2023-01-13T11:10:30.673Z,98651.94
2023-01-13T11:14:03.698Z,98670.69
2023-01-13T11:16:52.985Z,98677.31
2023-01-13T11:19:25.501Z,98668.72
2023-01-13T11:22:00.871Z,98673.72
2023-01-13T11:24:55.739Z,98679.50
2023-01-13T11:27:53.104Z,98682.59
2023-01-13T11:31:21.557Z,98681.88
2023-01-13T11:34:08.251Z,98683.00
2023-01-13T11:36:57.976Z,98687.50
2023-01-13T11:40:06.914Z,98672.75
2023-01-13T11:43:28.364Z,98682.31
2023-01-13T11:46:01.554Z,98682.53
2023-01-13T11:48:36.109Z,98672.38
2023-01-13T11:51:54.253Z,98680.38
2023-01-13T11:55:06.241Z,98672.50
2023-01-13T11:58:20.383Z,98683.63
2023-01-13T12:01:34.765Z,98680.38
2023-01-13T12:04:23.344Z,98677.38
2023-01-13T12:07:40.297Z,98673.59
2023-01-13T12:10:53.046Z,98672.72
2023-01-13T12:14:28.978Z,98676.69
2023-01-13T12:16:56.677Z,98667.44
2023-01-13T12:19:31.208Z,98659.72
2023-01-13T12:22:29.946Z,98674.69
2023-01-13T12:25:14.072Z,98675.81
2023-01-13T12:27:53.534Z,98673.28
2023-01-13T12:30:52.374Z,98682.16
2023-01-13T12:34:00.066Z,98670.75
2023-01-13T12:36:59.345Z,98673.81
2023-01-13T12:40:19.072Z,98680.09
2023-01-13T12:43:38.988Z,98664.09
2023-01-13T12:46:21.594Z,98669.03
2023-01-13T12:48:59.155Z,98665.38
2023-01-13T12:51:51.440Z,98670.97
2023-01-13T12:54:30.946Z,98666.00
2023-01-13T12:56:59.587Z,98674.34
2023-01-13T12:59:26.678Z,98667.78
2023-01-13T13:02:12.288Z,98661.34
2023-01-13T13:04:56.563Z,98661.47
2023-01-13T13:08:07.875Z,98662.63
2023-01-13T13:10:58.435Z,98671.69
2023-01-13T13:13:49.216Z,98656.38
2023-01-13T13:16:25.625Z,98653.63
2023-01-13T13:19:18.510Z,98652.03
2023-01-13T13:22:14.108Z,98651.94
2023-01-13T13:24:44.557Z,98661.91
2023-01-13T13:27:37.308Z,98664.75
2023-01-13T13:30:20.743Z,98671.03
2023-01-13T13:33:55.528Z,98667.34
2023-01-13T13:37:07.027Z,98669.09
2023-01-13T13:39:53.456Z,98656.97
2023-01-13T13:42:54.691Z,98651.59
2023-01-13T13:45:46.560Z,98669.00
2023-01-13T13:48:31.019Z,98654.97
2023-01-13T13:51:20.471Z,98670.69
2023-01-13T13:53:49.229Z,98668.88
2023-01-13T13:56:27.630Z,98657.03
2023-01-13T13:58:55.341Z,98677.44
2023-01-13T14:01:36.578Z,98659.72
2023-01-13T14:04:22.230Z,98682.41
2023-01-13T14:07:16.159Z,98703.72
2023-01-13T14:09:56.577Z,98718.84
2023-01-13T14:12:27.584Z,98718.91
2023-01-13T14:14:57.505Z,98745.06
2023-01-13T14:17:29.235Z,98740.84
2023-01-13T14:20:10.436Z,98752.91
2023-01-13T14:22:37.859Z,98748.50
2023-01-13T14:25:40.111Z,98768.53
2023-01-13T14:28:13.373Z,98773.50
2023-01-13T14:30:42.063Z,98797.41
2023-01-13T14:33:21.192Z,98808.81
2023-01-13T14:36:33.315Z,98806.94
2023-01-13T14:39:03.487Z,98822.50
2023-01-13T14:41:36.495Z,98818.19
2023-01-13T14:44:27.785Z,98825.38
2023-01-13T14:47:00.993Z,98826.75
2023-01-13T14:49:58.961Z,98819.66
2023-01-13T14:52:34.589Z,98821.25
2023-01-13T14:55:09.139Z,98828.81
2023-01-13T14:57:41.744Z,98816.56
2023-01-13T15:00:15.069Z,98818.06
2023-01-13T15:02:57.709Z,98826.84
2023-01-13T15:05:29.794Z,98835.78
2023-01-13T15:08:35.243Z,98831.78
2023-01-13T15:11:08.283Z,98828.34
2023-01-13T15:13:53.028Z,98838.78
2023-01-13T15:16:29.816Z,98843.91
2023-01-13T15:18:57.908Z,98838.06
2023-01-13T15:21:25.492Z,98855.09
2023-01-13T15:23:53.114Z,98848.66
2023-01-13T15:26:30.000Z,98837.00
2023-01-13T15:28:59.413Z,98835.00
2023-01-13T15:31:28.342Z,98847.13
2023-01-13T15:33:56.012Z,98839.22
2023-01-13T15:36:30.997Z,98851.91
2023-01-13T15:39:00.820Z,98852.97
2023-01-13T15:41:47.226Z,98862.91
2023-01-13T15:44:35.048Z,98860.16
2023-01-13T15:47:09.468Z,98872.56
2023-01-13T15:49:42.852Z,98878.66
2023-01-13T15:52:36.639Z,98876.56
2023-01-13T15:55:04.689Z,98877.59
2023-01-13T15:57:37.596Z,98872.78
2023-01-13T16:00:22.034Z,98875.19
2023-01-13T16:02:50.764Z,98880.13
2023-01-13T16:05:18.256Z,98879.66
2023-01-13T16:07:45.700Z,98891.59
2023-01-13T16:10:27.906Z,98896.03
2023-01-13T16:12:58.542Z,98902.81
2023-01-13T16:15:26.118Z,98906.47
2023-01-13T16:17:59.875Z,98906.03
2023-01-13T16:20:28.010Z,98916.13
2023-01-13T16:22:55.416Z,98916.47
2023-01-13T16:25:27.321Z,98913.66
2023-01-13T16:27:54.813Z,98927.09
2023-01-13T16:30:37.106Z,98922.66
2023-01-13T16:33:04.602Z,98931.81
2023-01-13T16:35:32.248Z,98943.22
2023-01-13T16:37:59.922Z,98950.84
2023-01-13T16:40:35.871Z,98965.03
